sensor_id;sensor_type;location;lat;lon;timestamp;temperature;humidity
14172;DHT22;7165;52.388;4.928;2023-04-30T00:02:23;7.80;99.90
14172;DHT22;7165;52.388;4.928;2023-04-30T00:04:51;7.70;99.90
14172;DHT22;7165;52.388;4.928;2023-04-30T00:07:18;7.70;99.90
14172;DHT22;7165;52.388;4.928;2023-04-30T00:09:44;7.60;99.90
14172;DHT22;7165;52.388;4.928;2023-04-30T00:12:11;7.60;99.90
14172;DHT22;7165;52.388;4.928;2023-04-30T00:14:37;7.60;99.90
14172;DHT22;7165;52.388;4.928;2023-04-30T00:17:04;7.60;99.90
14172;DHT22;7165;52.388;4.928;2023-04-30T00:19:30;7.60;99.90
14172;DHT22;7165;52.388;4.928;2023-04-30T00:21:58;7.60;99.90
14172;DHT22;7165;52.388;4.928;2023-04-30T00:24:25;7.60;99.90
14172;DHT22;7165;52.388;4.928;2023-04-30T00:26:52;7.50;99.90
14172;DHT22;7165;52.388;4.928;2023-04-30T00:29:18;7.50;99.90
14172;DHT22;7165;52.388;4.928;2023-04-30T00:31:45;7.50;99.90
14172;DHT22;7165;52.388;4.928;2023-04-30T00:34:12;7.50;99.90
14172;DHT22;7165;52.388;4.928;2023-04-30T00:36:38;7.50;99.90
14172;DHT22;7165;52.388;4.928;2023-04-30T00:39:07;7.60;99.90
14172;DHT22;7165;52.388;4.928;2023-04-30T00:41:34;7.60;99.90
14172;DHT22;7165;52.388;4.928;2023-04-30T00:44:00;7.60;99.90
14172;DHT22;7165;52.388;4.928;2023-04-30T00:46:27;7.70;99.90
14172;DHT22;7165;52.388;4.928;2023-04-30T00:48:54;7.70;99.90
14172;DHT22;7165;52.388;4.928;2023-04-30T00:51:21;7.70;99.90
14172;DHT22;7165;52.388;4.928;2023-04-30T00:53:48;7.70;99.90
14172;DHT22;7165;52.388;4.928;2023-04-30T00:56:16;7.70;99.90
14172;DHT22;7165;52.388;4.928;2023-04-30T00:58:43;7.70;99.90
14172;DHT22;7165;52.388;4.928;2023-04-30T01:01:10;7.70;99.90
14172;DHT22;7165;52.388;4.928;2023-04-30T01:03:37;7.70;99.90
14172;DHT22;7165;52.388;4.928;2023-04-30T01:06:03;7.60;99.90
14172;DHT22;7165;52.388;4.928;2023-04-30T01:08:30;7.60;99.90
14172;DHT22;7165;52.388;4.928;2023-04-30T01:11:01;7.70;99.90
14172;DHT22;7165;52.388;4.928;2023-04-30T01:13:33;7.60;99.90
14172;DHT22;7165;52.388;4.928;2023-04-30T01:16:06;7.70;99.90
14172;DHT22;7165;52.388;4.928;2023-04-30T01:18:37;7.70;99.90
14172;DHT22;7165;52.388;4.928;2023-04-30T01:21:05;7.70;99.90
14172;DHT22;7165;52.388;4.928;2023-04-30T01:23:37;7.70;99.90
14172;DHT22;7165;52.388;4.928;2023-04-30T01:26:09;7.70;99.90
14172;DHT22;7165;52.388;4.928;2023-04-30T01:28:38;7.70;99.90
14172;DHT22;7165;52.388;4.928;2023-04-30T01:31:10;7.60;99.90
14172;DHT22;7165;52.388;4.928;2023-04-30T01:33:36;7.60;99.90
14172;DHT22;7165;52.388;4.928;2023-04-30T01:36:15;7.50;99.90
14172;DHT22;7165;52.388;4.928;2023-04-30T01:39:00;7.50;99.90
14172;DHT22;7165;52.388;4.928;2023-04-30T01:41:29;7.40;99.90
14172;DHT22;7165;52.388;4.928;2023-04-30T01:44:03;7.40;99.90
14172;DHT22;7165;52.388;4.928;2023-04-30T01:46:31;7.40;99.90
14172;DHT22;7165;52.388;4.928;2023-04-30T01:49:11;7.40;99.90
14172;DHT22;7165;52.388;4.928;2023-04-30T01:51:40;7.40;99.90
14172;DHT22;7165;52.388;4.928;2023-04-30T01:54:09;7.50;99.90
14172;DHT22;7165;52.388;4.928;2023-04-30T01:56:39;7.50;99.90
14172;DHT22;7165;52.388;4.928;2023-04-30T01:59:08;7.50;99.90
14172;DHT22;7165;52.388;4.928;2023-04-30T02:01:35;7.50;99.90
14172;DHT22;7165;52.388;4.928;2023-04-30T02:04:02;7.50;99.90
14172;DHT22;7165;52.388;4.928;2023-04-30T02:06:28;7.50;99.90
14172;DHT22;7165;52.388;4.928;2023-04-30T02:08:55;7.40;99.90
14172;DHT22;7165;52.388;4.928;2023-04-30T02:11:26;7.40;99.90
14172;DHT22;7165;52.388;4.928;2023-04-30T02:13:53;7.40;99.90
14172;DHT22;7165;52.388;4.928;2023-04-30T02:16:21;7.30;99.90
14172;DHT22;7165;52.388;4.928;2023-04-30T02:18:48;7.30;99.90
14172;DHT22;7165;52.388;4.928;2023-04-30T02:21:14;7.30;99.90
14172;DHT22;7165;52.388;4.928;2023-04-30T02:23:41;7.30;99.90
14172;DHT22;7165;52.388;4.928;2023-04-30T02:26:07;7.30;99.90
14172;DHT22;7165;52.388;4.928;2023-04-30T02:28:34;7.30;99.90
14172;DHT22;7165;52.388;4.928;2023-04-30T02:31:01;7.30;99.90
14172;DHT22;7165;52.388;4.928;2023-04-30T02:33:28;7.30;99.90
14172;DHT22;7165;52.388;4.928;2023-04-30T02:35:55;7.30;99.90
14172;DHT22;7165;52.388;4.928;2023-04-30T02:38:22;7.30;99.90
14172;DHT22;7165;52.388;4.928;2023-04-30T02:40:48;7.30;99.90
14172;DHT22;7165;52.388;4.928;2023-04-30T02:43:15;7.30;99.90
14172;DHT22;7165;52.388;4.928;2023-04-30T02:45:41;7.40;99.90
14172;DHT22;7165;52.388;4.928;2023-04-30T02:48:08;7.40;99.90
14172;DHT22;7165;52.388;4.928;2023-04-30T02:50:36;7.40;99.90
14172;DHT22;7165;52.388;4.928;2023-04-30T02:53:02;7.40;99.90
14172;DHT22;7165;52.388;4.928;2023-04-30T02:55:29;7.40;99.90
14172;DHT22;7165;52.388;4.928;2023-04-30T02:57:57;7.50;99.90
14172;DHT22;7165;52.388;4.928;2023-04-30T03:00:23;7.50;99.90
14172;DHT22;7165;52.388;4.928;2023-04-30T03:02:50;7.60;99.90
14172;DHT22;7165;52.388;4.928;2023-04-30T03:05:17;7.60;99.90
14172;DHT22;7165;52.388;4.928;2023-04-30T03:07:45;7.60;99.90
14172;DHT22;7165;52.388;4.928;2023-04-30T03:10:11;7.60;99.90
14172;DHT22;7165;52.388;4.928;2023-04-30T03:12:38;7.70;99.90
14172;DHT22;7165;52.388;4.928;2023-04-30T03:15:06;7.70;99.90
14172;DHT22;7165;52.388;4.928;2023-04-30T03:17:32;7.70;99.90
14172;DHT22;7165;52.388;4.928;2023-04-30T03:19:59;7.60;99.90
14172;DHT22;7165;52.388;4.928;2023-04-30T03:22:25;7.60;99.90
14172;DHT22;7165;52.388;4.928;2023-04-30T03:24:53;7.60;99.90
14172;DHT22;7165;52.388;4.928;2023-04-30T03:27:20;7.60;99.90
14172;DHT22;7165;52.388;4.928;2023-04-30T03:29:47;7.60;99.90
14172;DHT22;7165;52.388;4.928;2023-04-30T03:32:14;7.60;99.90
14172;DHT22;7165;52.388;4.928;2023-04-30T03:34:40;7.60;99.90
14172;DHT22;7165;52.388;4.928;2023-04-30T03:37:07;7.60;99.90
14172;DHT22;7165;52.388;4.928;2023-04-30T03:39:33;7.70;99.90
14172;DHT22;7165;52.388;4.928;2023-04-30T03:42:01;7.70;99.90
14172;DHT22;7165;52.388;4.928;2023-04-30T03:44:28;7.80;99.90
14172;DHT22;7165;52.388;4.928;2023-04-30T03:46:55;7.90;99.90
14172;DHT22;7165;52.388;4.928;2023-04-30T03:49:21;8.00;99.90
14172;DHT22;7165;52.388;4.928;2023-04-30T03:51:48;8.00;99.90
14172;DHT22;7165;52.388;4.928;2023-04-30T03:54:14;8.10;99.90
14172;DHT22;7165;52.388;4.928;2023-04-30T03:56:41;8.10;99.90
14172;DHT22;7165;52.388;4.928;2023-04-30T03:59:10;8.20;99.90
14172;DHT22;7165;52.388;4.928;2023-04-30T04:01:36;8.20;99.90
14172;DHT22;7165;52.388;4.928;2023-04-30T04:04:03;8.10;99.90
14172;DHT22;7165;52.388;4.928;2023-04-30T04:06:29;8.10;99.90
14172;DHT22;7165;52.388;4.928;2023-04-30T04:08:56;8.10;99.90
14172;DHT22;7165;52.388;4.928;2023-04-30T04:11:23;8.10;99.90
14172;DHT22;7165;52.388;4.928;2023-04-30T04:13:50;8.10;99.90
14172;DHT22;7165;52.388;4.928;2023-04-30T04:16:17;8.10;99.90
14172;DHT22;7165;52.388;4.928;2023-04-30T04:18:44;8.00;99.90
14172;DHT22;7165;52.388;4.928;2023-04-30T04:21:11;8.00;99.90
14172;DHT22;7165;52.388;4.928;2023-04-30T04:23:37;8.00;99.90
14172;DHT22;7165;52.388;4.928;2023-04-30T04:26:04;8.00;99.90
14172;DHT22;7165;52.388;4.928;2023-04-30T04:28:31;8.00;99.90
14172;DHT22;7165;52.388;4.928;2023-04-30T04:30:57;8.10;99.90
14172;DHT22;7165;52.388;4.928;2023-04-30T04:33:25;8.10;99.90
14172;DHT22;7165;52.388;4.928;2023-04-30T04:35:53;8.10;99.90
14172;DHT22;7165;52.388;4.928;2023-04-30T04:38:21;8.10;99.90
14172;DHT22;7165;52.388;4.928;2023-04-30T04:40:50;8.10;99.90
14172;DHT22;7165;52.388;4.928;2023-04-30T04:43:18;8.10;99.90
14172;DHT22;7165;52.388;4.928;2023-04-30T04:45:45;8.10;99.90
14172;DHT22;7165;52.388;4.928;2023-04-30T04:48:12;8.10;99.90
14172;DHT22;7165;52.388;4.928;2023-04-30T04:50:40;8.10;99.90
14172;DHT22;7165;52.388;4.928;2023-04-30T04:53:06;8.20;99.90
14172;DHT22;7165;52.388;4.928;2023-04-30T04:55:33;8.20;99.90
14172;DHT22;7165;52.388;4.928;2023-04-30T04:58:00;8.10;99.90
14172;DHT22;7165;52.388;4.928;2023-04-30T05:00:26;8.20;99.90
14172;DHT22;7165;52.388;4.928;2023-04-30T05:02:54;8.10;99.90
14172;DHT22;7165;52.388;4.928;2023-04-30T05:05:20;8.10;99.90
14172;DHT22;7165;52.388;4.928;2023-04-30T05:07:48;8.20;99.90
14172;DHT22;7165;52.388;4.928;2023-04-30T05:10:16;8.20;99.90
14172;DHT22;7165;52.388;4.928;2023-04-30T05:12:43;8.20;99.90
14172;DHT22;7165;52.388;4.928;2023-04-30T05:15:09;8.20;99.90
14172;DHT22;7165;52.388;4.928;2023-04-30T05:17:36;8.20;99.90
14172;DHT22;7165;52.388;4.928;2023-04-30T05:20:03;8.20;99.90
14172;DHT22;7165;52.388;4.928;2023-04-30T05:22:31;8.30;99.90
14172;DHT22;7165;52.388;4.928;2023-04-30T05:24:59;8.30;99.90
14172;DHT22;7165;52.388;4.928;2023-04-30T05:27:25;8.30;99.90
14172;DHT22;7165;52.388;4.928;2023-04-30T05:29:52;8.30;99.90
14172;DHT22;7165;52.388;4.928;2023-04-30T05:32:19;8.30;99.90
14172;DHT22;7165;52.388;4.928;2023-04-30T05:34:45;8.40;99.90
14172;DHT22;7165;52.388;4.928;2023-04-30T05:37:12;8.50;99.90
14172;DHT22;7165;52.388;4.928;2023-04-30T05:39:39;8.60;99.90
14172;DHT22;7165;52.388;4.928;2023-04-30T05:42:07;8.60;99.90
14172;DHT22;7165;52.388;4.928;2023-04-30T05:44:33;8.70;99.90
14172;DHT22;7165;52.388;4.928;2023-04-30T05:47:00;8.80;99.90
14172;DHT22;7165;52.388;4.928;2023-04-30T05:49:26;8.80;99.90
14172;DHT22;7165;52.388;4.928;2023-04-30T05:51:53;8.90;99.90
14172;DHT22;7165;52.388;4.928;2023-04-30T05:54:19;9.00;99.90
14172;DHT22;7165;52.388;4.928;2023-04-30T05:56:46;9.10;99.90
14172;DHT22;7165;52.388;4.928;2023-04-30T05:59:14;9.20;99.90
14172;DHT22;7165;52.388;4.928;2023-04-30T06:01:40;9.30;99.90
14172;DHT22;7165;52.388;4.928;2023-04-30T06:04:07;9.40;99.90
14172;DHT22;7165;52.388;4.928;2023-04-30T06:06:33;9.40;99.90
14172;DHT22;7165;52.388;4.928;2023-04-30T06:09:00;9.50;99.90
14172;DHT22;7165;52.388;4.928;2023-04-30T06:11:26;9.60;99.90
14172;DHT22;7165;52.388;4.928;2023-04-30T06:13:54;9.60;99.90
14172;DHT22;7165;52.388;4.928;2023-04-30T06:16:22;9.70;99.90
14172;DHT22;7165;52.388;4.928;2023-04-30T06:18:49;9.80;99.90
14172;DHT22;7165;52.388;4.928;2023-04-30T06:21:15;9.90;99.90
14172;DHT22;7165;52.388;4.928;2023-04-30T06:23:42;9.90;99.90
14172;DHT22;7165;52.388;4.928;2023-04-30T06:26:08;9.90;99.90
14172;DHT22;7165;52.388;4.928;2023-04-30T06:28:35;10.00;99.90
14172;DHT22;7165;52.388;4.928;2023-04-30T06:31:01;10.00;99.90
14172;DHT22;7165;52.388;4.928;2023-04-30T06:33:30;10.10;99.90
14172;DHT22;7165;52.388;4.928;2023-04-30T06:35:56;10.10;99.90
14172;DHT22;7165;52.388;4.928;2023-04-30T06:38:23;10.20;99.90
14172;DHT22;7165;52.388;4.928;2023-04-30T06:40:49;10.30;99.90
14172;DHT22;7165;52.388;4.928;2023-04-30T06:43:16;10.40;99.90
14172;DHT22;7165;52.388;4.928;2023-04-30T06:45:42;10.50;99.90
14172;DHT22;7165;52.388;4.928;2023-04-30T06:48:09;10.60;99.90
14172;DHT22;7165;52.388;4.928;2023-04-30T06:50:37;10.60;99.90
14172;DHT22;7165;52.388;4.928;2023-04-30T06:53:09;10.60;99.90
14172;DHT22;7165;52.388;4.928;2023-04-30T06:55:36;10.70;99.90
14172;DHT22;7165;52.388;4.928;2023-04-30T06:58:02;10.80;99.90
14172;DHT22;7165;52.388;4.928;2023-04-30T07:00:30;10.80;99.90
14172;DHT22;7165;52.388;4.928;2023-04-30T07:02:56;10.90;99.90
14172;DHT22;7165;52.388;4.928;2023-04-30T07:05:24;11.00;99.90
14172;DHT22;7165;52.388;4.928;2023-04-30T07:07:52;11.10;99.90
14172;DHT22;7165;52.388;4.928;2023-04-30T07:10:19;11.20;99.90
14172;DHT22;7165;52.388;4.928;2023-04-30T07:12:45;11.30;99.90
14172;DHT22;7165;52.388;4.928;2023-04-30T07:15:12;11.30;99.90
14172;DHT22;7165;52.388;4.928;2023-04-30T07:17:39;11.30;99.90
14172;DHT22;7165;52.388;4.928;2023-04-30T07:20:07;11.40;99.90
14172;DHT22;7165;52.388;4.928;2023-04-30T07:22:34;11.40;99.90
14172;DHT22;7165;52.388;4.928;2023-04-30T07:25:02;11.50;99.90
14172;DHT22;7165;52.388;4.928;2023-04-30T07:27:29;11.50;99.90
14172;DHT22;7165;52.388;4.928;2023-04-30T07:29:55;11.60;99.90
14172;DHT22;7165;52.388;4.928;2023-04-30T07:32:22;11.60;99.90
14172;DHT22;7165;52.388;4.928;2023-04-30T07:34:51;11.60;99.90
14172;DHT22;7165;52.388;4.928;2023-04-30T07:37:18;11.70;99.90
14172;DHT22;7165;52.388;4.928;2023-04-30T07:39:44;11.80;99.90
14172;DHT22;7165;52.388;4.928;2023-04-30T07:42:12;11.90;99.90
14172;DHT22;7165;52.388;4.928;2023-04-30T07:44:39;12.00;99.90
14172;DHT22;7165;52.388;4.928;2023-04-30T07:47:06;12.00;99.90
14172;DHT22;7165;52.388;4.928;2023-04-30T07:49:34;12.00;99.90
14172;DHT22;7165;52.388;4.928;2023-04-30T07:52:00;12.10;99.90
14172;DHT22;7165;52.388;4.928;2023-04-30T07:54:27;12.10;99.90
14172;DHT22;7165;52.388;4.928;2023-04-30T07:56:54;12.10;99.90
14172;DHT22;7165;52.388;4.928;2023-04-30T07:59:22;12.20;99.90
14172;DHT22;7165;52.388;4.928;2023-04-30T08:01:49;12.20;99.90
14172;DHT22;7165;52.388;4.928;2023-04-30T08:04:15;12.40;99.90
14172;DHT22;7165;52.388;4.928;2023-04-30T08:06:42;12.50;99.90
14172;DHT22;7165;52.388;4.928;2023-04-30T08:09:08;12.60;99.90
14172;DHT22;7165;52.388;4.928;2023-04-30T08:11:35;12.80;99.90
14172;DHT22;7165;52.388;4.928;2023-04-30T08:14:02;12.90;99.90
14172;DHT22;7165;52.388;4.928;2023-04-30T08:16:30;12.90;99.90
14172;DHT22;7165;52.388;4.928;2023-04-30T08:18:56;12.80;99.90
14172;DHT22;7165;52.388;4.928;2023-04-30T08:21:23;12.90;99.90
14172;DHT22;7165;52.388;4.928;2023-04-30T08:23:52;12.90;99.90
14172;DHT22;7165;52.388;4.928;2023-04-30T08:26:18;13.00;99.90
14172;DHT22;7165;52.388;4.928;2023-04-30T08:28:45;13.10;99.90
14172;DHT22;7165;52.388;4.928;2023-04-30T08:31:12;13.20;99.90
14172;DHT22;7165;52.388;4.928;2023-04-30T08:33:40;13.40;99.90
14172;DHT22;7165;52.388;4.928;2023-04-30T08:36:06;13.50;99.90
14172;DHT22;7165;52.388;4.928;2023-04-30T08:38:33;13.70;99.90
14172;DHT22;7165;52.388;4.928;2023-04-30T08:41:03;13.80;99.90
14172;DHT22;7165;52.388;4.928;2023-04-30T08:43:32;13.90;99.90
14172;DHT22;7165;52.388;4.928;2023-04-30T08:45:59;14.00;99.90
14172;DHT22;7165;52.388;4.928;2023-04-30T08:48:27;14.20;99.90
14172;DHT22;7165;52.388;4.928;2023-04-30T08:50:55;14.30;99.90
14172;DHT22;7165;52.388;4.928;2023-04-30T08:53:21;14.30;99.90
14172;DHT22;7165;52.388;4.928;2023-04-30T08:55:48;14.50;99.90
14172;DHT22;7165;52.388;4.928;2023-04-30T08:58:14;14.60;99.90
14172;DHT22;7165;52.388;4.928;2023-04-30T09:00:41;14.60;99.90
14172;DHT22;7165;52.388;4.928;2023-04-30T09:03:07;14.80;99.90
14172;DHT22;7165;52.388;4.928;2023-04-30T09:05:35;14.90;99.90
14172;DHT22;7165;52.388;4.928;2023-04-30T09:08:03;15.00;99.90
14172;DHT22;7165;52.388;4.928;2023-04-30T09:10:31;15.00;99.90
14172;DHT22;7165;52.388;4.928;2023-04-30T09:12:59;15.10;99.90
14172;DHT22;7165;52.388;4.928;2023-04-30T09:15:25;15.00;99.90
14172;DHT22;7165;52.388;4.928;2023-04-30T09:18:04;14.90;99.90
14172;DHT22;7165;52.388;4.928;2023-04-30T09:20:31;14.80;99.90
14172;DHT22;7165;52.388;4.928;2023-04-30T09:23:05;14.80;99.90
14172;DHT22;7165;52.388;4.928;2023-04-30T09:25:36;14.90;99.90
14172;DHT22;7165;52.388;4.928;2023-04-30T09:28:07;15.10;99.90
14172;DHT22;7165;52.388;4.928;2023-04-30T09:30:34;15.30;99.90
14172;DHT22;7165;52.388;4.928;2023-04-30T09:33:01;15.30;99.90
14172;DHT22;7165;52.388;4.928;2023-04-30T09:35:28;15.50;99.90
14172;DHT22;7165;52.388;4.928;2023-04-30T09:37:55;15.50;99.90
14172;DHT22;7165;52.388;4.928;2023-04-30T09:40:33;15.60;99.90
14172;DHT22;7165;52.388;4.928;2023-04-30T09:43:00;15.60;99.90
14172;DHT22;7165;52.388;4.928;2023-04-30T09:45:27;15.80;99.90
14172;DHT22;7165;52.388;4.928;2023-04-30T09:48:04;16.00;99.90
14172;DHT22;7165;52.388;4.928;2023-04-30T09:50:35;16.10;99.90
14172;DHT22;7165;52.388;4.928;2023-04-30T09:53:04;16.30;99.90
14172;DHT22;7165;52.388;4.928;2023-04-30T09:55:32;16.20;99.90
14172;DHT22;7165;52.388;4.928;2023-04-30T09:57:59;16.30;99.90
14172;DHT22;7165;52.388;4.928;2023-04-30T10:00:25;16.50;99.90
14172;DHT22;7165;52.388;4.928;2023-04-30T10:02:52;16.60;99.90
14172;DHT22;7165;52.388;4.928;2023-04-30T10:05:19;16.70;99.90
14172;DHT22;7165;52.388;4.928;2023-04-30T10:07:45;16.70;99.90
14172;DHT22;7165;52.388;4.928;2023-04-30T10:10:12;16.70;99.90
14172;DHT22;7165;52.388;4.928;2023-04-30T10:12:42;16.70;99.90
14172;DHT22;7165;52.388;4.928;2023-04-30T10:15:10;16.80;99.90
14172;DHT22;7165;52.388;4.928;2023-04-30T10:17:38;16.90;99.90
14172;DHT22;7165;52.388;4.928;2023-04-30T10:20:07;17.00;99.90
14172;DHT22;7165;52.388;4.928;2023-04-30T10:22:35;17.10;99.90
14172;DHT22;7165;52.388;4.928;2023-04-30T10:25:01;17.20;99.90
14172;DHT22;7165;52.388;4.928;2023-04-30T10:27:28;17.30;99.90
14172;DHT22;7165;52.388;4.928;2023-04-30T10:29:56;17.40;99.90
14172;DHT22;7165;52.388;4.928;2023-04-30T10:32:24;17.50;99.90
14172;DHT22;7165;52.388;4.928;2023-04-30T10:34:58;17.50;99.90
14172;DHT22;7165;52.388;4.928;2023-04-30T10:37:27;17.60;99.90
14172;DHT22;7165;52.388;4.928;2023-04-30T10:39:56;17.80;99.90
14172;DHT22;7165;52.388;4.928;2023-04-30T10:42:23;17.90;99.90
14172;DHT22;7165;52.388;4.928;2023-04-30T10:44:49;17.90;99.90
14172;DHT22;7165;52.388;4.928;2023-04-30T10:47:17;17.80;99.90
14172;DHT22;7165;52.388;4.928;2023-04-30T10:49:45;17.90;99.90
14172;DHT22;7165;52.388;4.928;2023-04-30T10:52:13;17.90;99.90
14172;DHT22;7165;52.388;4.928;2023-04-30T10:54:39;18.00;99.90
14172;DHT22;7165;52.388;4.928;2023-04-30T10:57:14;18.30;99.90
14172;DHT22;7165;52.388;4.928;2023-04-30T10:59:42;18.50;99.90
14172;DHT22;7165;52.388;4.928;2023-04-30T11:02:11;18.70;99.90
14172;DHT22;7165;52.388;4.928;2023-04-30T11:07:20;18.80;99.90
14172;DHT22;7165;52.388;4.928;2023-04-30T11:09:50;18.90;99.90
14172;DHT22;7165;52.388;4.928;2023-04-30T11:12:22;19.00;99.90
14172;DHT22;7165;52.388;4.928;2023-04-30T11:14:53;19.10;99.90
14172;DHT22;7165;52.388;4.928;2023-04-30T11:17:23;19.30;99.90
14172;DHT22;7165;52.388;4.928;2023-04-30T11:19:50;19.30;99.90
14172;DHT22;7165;52.388;4.928;2023-04-30T11:22:18;19.20;99.90
14172;DHT22;7165;52.388;4.928;2023-04-30T11:24:49;19.10;99.90
14172;DHT22;7165;52.388;4.928;2023-04-30T11:27:18;19.00;99.90
14172;DHT22;7165;52.388;4.928;2023-04-30T11:29:45;19.00;99.90
14172;DHT22;7165;52.388;4.928;2023-04-30T11:32:12;19.30;99.90
14172;DHT22;7165;52.388;4.928;2023-04-30T11:34:38;19.60;99.90
14172;DHT22;7165;52.388;4.928;2023-04-30T11:37:05;19.80;99.90
14172;DHT22;7165;52.388;4.928;2023-04-30T11:39:34;19.80;99.90
14172;DHT22;7165;52.388;4.928;2023-04-30T11:42:02;20.10;99.90
14172;DHT22;7165;52.388;4.928;2023-04-30T11:44:29;20.20;99.90
14172;DHT22;7165;52.388;4.928;2023-04-30T11:46:55;20.30;99.90
14172;DHT22;7165;52.388;4.928;2023-04-30T11:49:22;20.50;99.90
14172;DHT22;7165;52.388;4.928;2023-04-30T11:51:48;20.30;99.90
14172;DHT22;7165;52.388;4.928;2023-04-30T11:54:16;20.20;99.90
14172;DHT22;7165;52.388;4.928;2023-04-30T11:56:44;20.20;99.90
14172;DHT22;7165;52.388;4.928;2023-04-30T11:59:13;20.20;99.90
14172;DHT22;7165;52.388;4.928;2023-04-30T12:01:40;20.50;99.90
14172;DHT22;7165;52.388;4.928;2023-04-30T12:04:06;20.40;99.90
14172;DHT22;7165;52.388;4.928;2023-04-30T12:06:33;20.30;99.90
14172;DHT22;7165;52.388;4.928;2023-04-30T12:09:01;20.20;99.90
14172;DHT22;7165;52.388;4.928;2023-04-30T12:11:32;19.90;99.90
14172;DHT22;7165;52.388;4.928;2023-04-30T12:14:00;20.00;99.90
14172;DHT22;7165;52.388;4.928;2023-04-30T12:16:37;19.80;99.90
14172;DHT22;7165;52.388;4.928;2023-04-30T12:19:04;19.70;99.90
14172;DHT22;7165;52.388;4.928;2023-04-30T12:21:31;20.10;99.90
14172;DHT22;7165;52.388;4.928;2023-04-30T12:23:58;20.20;99.90
14172;DHT22;7165;52.388;4.928;2023-04-30T12:26:32;20.30;99.90
14172;DHT22;7165;52.388;4.928;2023-04-30T12:29:01;20.30;99.90
14172;DHT22;7165;52.388;4.928;2023-04-30T12:31:31;20.40;99.90
14172;DHT22;7165;52.388;4.928;2023-04-30T12:34:02;20.50;99.90
14172;DHT22;7165;52.388;4.928;2023-04-30T12:36:29;20.50;99.90
14172;DHT22;7165;52.388;4.928;2023-04-30T12:39:00;20.40;99.90
14172;DHT22;7165;52.388;4.928;2023-04-30T12:41:28;20.40;99.90
14172;DHT22;7165;52.388;4.928;2023-04-30T12:46:37;20.30;99.90
14172;DHT22;7165;52.388;4.928;2023-04-30T12:49:04;20.40;99.90
14172;DHT22;7165;52.388;4.928;2023-04-30T12:51:31;20.70;99.90
14172;DHT22;7165;52.388;4.928;2023-04-30T12:53:58;20.90;99.90
14172;DHT22;7165;52.388;4.928;2023-04-30T12:56:25;20.90;99.90
14172;DHT22;7165;52.388;4.928;2023-04-30T12:58:51;20.80;99.90
14172;DHT22;7165;52.388;4.928;2023-04-30T13:01:18;20.80;99.90
14172;DHT22;7165;52.388;4.928;2023-04-30T13:03:47;21.10;99.90
14172;DHT22;7165;52.388;4.928;2023-04-30T13:06:13;21.30;99.90
14172;DHT22;7165;52.388;4.928;2023-04-30T13:08:40;21.10;99.90
14172;DHT22;7165;52.388;4.928;2023-04-30T13:11:07;21.10;99.90
14172;DHT22;7165;52.388;4.928;2023-04-30T13:13:34;21.10;99.90
14172;DHT22;7165;52.388;4.928;2023-04-30T13:16:00;21.00;99.90
14172;DHT22;7165;52.388;4.928;2023-04-30T13:18:27;21.00;99.90
14172;DHT22;7165;52.388;4.928;2023-04-30T13:20:55;21.10;99.90
14172;DHT22;7165;52.388;4.928;2023-04-30T13:23:21;21.20;99.90
14172;DHT22;7165;52.388;4.928;2023-04-30T13:25:48;21.30;99.90
14172;DHT22;7165;52.388;4.928;2023-04-30T13:28:14;21.50;99.90
14172;DHT22;7165;52.388;4.928;2023-04-30T13:30:41;21.40;99.90
14172;DHT22;7165;52.388;4.928;2023-04-30T13:33:08;21.30;99.90
14172;DHT22;7165;52.388;4.928;2023-04-30T13:35:35;21.50;99.90
14172;DHT22;7165;52.388;4.928;2023-04-30T13:38:04;21.50;99.90
14172;DHT22;7165;52.388;4.928;2023-04-30T13:40:31;21.50;99.90
14172;DHT22;7165;52.388;4.928;2023-04-30T13:42:57;21.40;99.90
14172;DHT22;7165;52.388;4.928;2023-04-30T13:45:24;21.10;99.90
14172;DHT22;7165;52.388;4.928;2023-04-30T13:47:50;21.00;99.90
14172;DHT22;7165;52.388;4.928;2023-04-30T13:50:17;20.90;99.90
14172;DHT22;7165;52.388;4.928;2023-04-30T13:52:43;20.70;99.90
14172;DHT22;7165;52.388;4.928;2023-04-30T13:55:11;20.40;99.90
14172;DHT22;7165;52.388;4.928;2023-04-30T13:57:38;20.50;99.90
14172;DHT22;7165;52.388;4.928;2023-04-30T14:00:05;20.50;99.90
14172;DHT22;7165;52.388;4.928;2023-04-30T14:02:33;20.70;99.90
14172;DHT22;7165;52.388;4.928;2023-04-30T14:04:59;20.90;99.90
14172;DHT22;7165;52.388;4.928;2023-04-30T14:07:27;21.10;99.90
14172;DHT22;7165;52.388;4.928;2023-04-30T14:09:54;21.30;99.90
14172;DHT22;7165;52.388;4.928;2023-04-30T14:12:22;21.40;99.90
14172;DHT22;7165;52.388;4.928;2023-04-30T14:14:49;21.60;99.90
14172;DHT22;7165;52.388;4.928;2023-04-30T14:17:16;21.70;99.90
14172;DHT22;7165;52.388;4.928;2023-04-30T14:19:42;21.80;99.90
14172;DHT22;7165;52.388;4.928;2023-04-30T14:22:09;21.90;99.90
14172;DHT22;7165;52.388;4.928;2023-04-30T14:24:36;21.80;99.90
14172;DHT22;7165;52.388;4.928;2023-04-30T14:27:02;21.80;99.90
14172;DHT22;7165;52.388;4.928;2023-04-30T14:29:30;21.80;99.90
14172;DHT22;7165;52.388;4.928;2023-04-30T14:31:57;21.90;99.90
14172;DHT22;7165;52.388;4.928;2023-04-30T14:34:23;21.90;99.90
14172;DHT22;7165;52.388;4.928;2023-04-30T14:36:50;21.60;99.90
14172;DHT22;7165;52.388;4.928;2023-04-30T14:39:16;21.50;99.90
14172;DHT22;7165;52.388;4.928;2023-04-30T14:41:43;21.60;99.90
14172;DHT22;7165;52.388;4.928;2023-04-30T14:44:09;21.90;99.90
14172;DHT22;7165;52.388;4.928;2023-04-30T14:46:37;21.90;99.90
14172;DHT22;7165;52.388;4.928;2023-04-30T14:49:05;21.70;99.90
14172;DHT22;7165;52.388;4.928;2023-04-30T14:51:31;21.70;99.90
14172;DHT22;7165;52.388;4.928;2023-04-30T14:53:58;21.70;99.90
14172;DHT22;7165;52.388;4.928;2023-04-30T14:56:26;21.80;99.90
14172;DHT22;7165;52.388;4.928;2023-04-30T14:58:52;21.70;99.90
14172;DHT22;7165;52.388;4.928;2023-04-30T15:01:19;21.90;99.90
14172;DHT22;7165;52.388;4.928;2023-04-30T15:03:47;22.00;99.90
14172;DHT22;7165;52.388;4.928;2023-04-30T15:06:13;22.00;99.90
14172;DHT22;7165;52.388;4.928;2023-04-30T15:08:40;22.00;99.90
14172;DHT22;7165;52.388;4.928;2023-04-30T15:11:07;22.30;99.90
14172;DHT22;7165;52.388;4.928;2023-04-30T15:13:34;22.30;99.90
14172;DHT22;7165;52.388;4.928;2023-04-30T15:16:01;22.40;99.90
14172;DHT22;7165;52.388;4.928;2023-04-30T15:18:27;22.40;99.90
14172;DHT22;7165;52.388;4.928;2023-04-30T15:20:55;22.30;99.90
14172;DHT22;7165;52.388;4.928;2023-04-30T15:23:22;22.30;99.90
14172;DHT22;7165;52.388;4.928;2023-04-30T15:25:48;22.40;99.90
14172;DHT22;7165;52.388;4.928;2023-04-30T15:28:15;22.50;99.90
14172;DHT22;7165;52.388;4.928;2023-04-30T15:30:42;22.40;99.90
14172;DHT22;7165;52.388;4.928;2023-04-30T15:33:09;22.40;99.90
14172;DHT22;7165;52.388;4.928;2023-04-30T15:35:36;22.50;99.90
14172;DHT22;7165;52.388;4.928;2023-04-30T15:38:04;22.50;99.90
14172;DHT22;7165;52.388;4.928;2023-04-30T15:40:31;22.50;99.90
14172;DHT22;7165;52.388;4.928;2023-04-30T15:42:57;22.80;99.90
14172;DHT22;7165;52.388;4.928;2023-04-30T15:45:24;22.80;99.90
14172;DHT22;7165;52.388;4.928;2023-04-30T15:47:51;22.90;99.90
14172;DHT22;7165;52.388;4.928;2023-04-30T15:50:18;22.90;99.90
14172;DHT22;7165;52.388;4.928;2023-04-30T15:52:45;23.10;99.90
14172;DHT22;7165;52.388;4.928;2023-04-30T15:55:13;23.10;99.90
14172;DHT22;7165;52.388;4.928;2023-04-30T15:57:40;23.00;99.90
14172;DHT22;7165;52.388;4.928;2023-04-30T16:00:07;23.00;99.90